createdAt,value
2019-01-11T00:01:00.273Z,100645.11
2019-01-11T00:04:05.538Z,100652.11
2019-01-11T00:07:10.711Z,100648.97
2019-01-11T00:10:16.018Z,100639.22
2019-01-11T00:13:21.191Z,100635.64
2019-01-11T00:16:26.375Z,100637.91
2019-01-11T00:19:31.601Z,100639.72
2019-01-11T00:22:36.739Z,100633.83
2019-01-11T00:25:41.917Z,100629.97
2019-01-11T00:28:47.088Z,100642.95
2019-01-11T00:31:52.446Z,100635.75
2019-01-11T00:34:57.657Z,100634.19
2019-01-11T00:38:02.832Z,100627.22
2019-01-11T00:41:08.023Z,100625.77
2019-01-11T00:44:13.158Z,100623.60
2019-01-11T00:47:18.354Z,100624.09
2019-01-11T00:50:23.522Z,100616.98
2019-01-11T00:53:28.675Z,100612.53
2019-01-11T00:56:33.936Z,100605.95
2019-01-11T00:59:39.048Z,100601.72
2019-01-11T01:02:44.253Z,100603.30
2019-01-11T01:05:49.493Z,100602.33
2019-01-11T01:08:54.809Z,100604.24
2019-01-11T01:12:00.012Z,100609.67
2019-01-11T01:15:07.667Z,100609.18
2019-01-11T01:18:13.110Z,100614.11
2019-01-11T01:21:18.315Z,100618.68
2019-01-11T01:24:23.482Z,100618.69
2019-01-11T01:27:28.675Z,100622.77
2019-01-11T01:30:33.966Z,100618.45
2019-01-11T01:33:39.249Z,100624.22
2019-01-11T01:36:44.442Z,100624.22
2019-01-11T01:39:49.686Z,100622.90
2019-01-11T01:42:54.870Z,100622.50
2019-01-11T01:46:00.139Z,100621.91
2019-01-11T01:49:05.415Z,100614.94
2019-01-11T01:52:10.704Z,100606.16
2019-01-11T01:55:16.614Z,100609.27
2019-01-11T01:58:21.846Z,100610.37
2019-01-11T02:01:27.106Z,100616.13
2019-01-11T02:04:32.384Z,100616.13
2019-01-11T02:07:37.517Z,100625.17
2019-01-11T02:10:42.727Z,100622.74
2019-01-11T02:13:47.917Z,100613.47
2019-01-11T02:16:53.156Z,100611.67
2019-01-11T02:19:58.323Z,100611.94
2019-01-11T02:23:03.533Z,100610.72
2019-01-11T02:26:08.712Z,100617.44
2019-01-11T02:29:13.986Z,100607.23
2019-01-11T02:32:19.205Z,100604.10
2019-01-11T02:35:24.523Z,100598.55
2019-01-11T02:38:29.696Z,100594.70
2019-01-11T02:41:35.052Z,100598.80
2019-01-11T02:44:40.317Z,100591.42
2019-01-11T02:47:45.637Z,100596.86
2019-01-11T02:50:50.817Z,100583.02
2019-01-11T02:53:56.020Z,100583.01
2019-01-11T02:57:01.285Z,100587.00
2019-01-11T03:00:18.463Z,100580.38
2019-01-11T03:03:24.885Z,100585.69
2019-01-11T03:06:30.090Z,100582.08
2019-01-11T03:09:37.656Z,100581.48
2019-01-11T03:12:42.824Z,100584.22
2019-01-11T03:15:48.094Z,100589.64
2019-01-11T03:18:53.413Z,100584.34
2019-01-11T03:21:58.607Z,100581.34
2019-01-11T03:25:04.437Z,100593.09
2019-01-11T03:28:09.655Z,100580.72
2019-01-11T03:31:24.103Z,100584.09
2019-01-11T03:34:29.332Z,100583.70
2019-01-11T03:37:34.590Z,100575.17
2019-01-11T03:40:39.833Z,100569.84
2019-01-11T03:43:47.276Z,100576.20
2019-01-11T03:46:52.459Z,100580.11
2019-01-11T03:49:57.579Z,100578.88
2019-01-11T03:53:02.860Z,100582.25
2019-01-11T03:56:08.249Z,100581.16
2019-01-11T03:59:13.519Z,100583.25
2019-01-11T04:02:18.733Z,100580.63
2019-01-11T04:05:23.848Z,100584.88
2019-01-11T04:08:28.958Z,100582.06
2019-01-11T04:11:34.099Z,100581.48
2019-01-11T04:14:39.523Z,100583.75
2019-01-11T04:17:44.791Z,100588.68
2019-01-11T04:20:50.029Z,100584.82
2019-01-11T04:23:55.260Z,100586.23
2019-01-11T04:27:00.427Z,100586.52
2019-01-11T04:30:09.699Z,100582.20
2019-01-11T04:33:14.901Z,100580.05
2019-01-11T04:36:20.108Z,100585.23
2019-01-11T04:39:25.356Z,100581.72
2019-01-11T04:42:30.479Z,100580.88
2019-01-11T04:45:35.674Z,100578.73
2019-01-11T04:48:40.842Z,100576.81
2019-01-11T04:51:46.050Z,100578.23
2019-01-11T04:54:51.226Z,100574.13
2019-01-11T04:57:56.560Z,100575.48
2019-01-11T05:01:01.752Z,100567.79
2019-01-11T05:04:06.975Z,100564.73
2019-01-11T05:07:12.303Z,100564.50
2019-01-11T05:10:19.202Z,100559.19
2019-01-11T05:13:38.010Z,100559.92
2019-01-11T05:16:43.256Z,100559.19
2019-01-11T05:19:49.552Z,100552.95
2019-01-11T05:22:54.747Z,100554.39
2019-01-11T05:25:59.950Z,100558.13
2019-01-11T05:29:05.372Z,100559.22
2019-01-11T05:32:10.614Z,100563.42
2019-01-11T05:35:15.811Z,100562.50
2019-01-11T05:38:20.944Z,100560.55
2019-01-11T05:41:26.167Z,100557.88
2019-01-11T05:44:31.407Z,100551.16
2019-01-11T05:47:36.673Z,100546.58
2019-01-11T05:50:41.845Z,100549.23
2019-01-11T05:53:47.127Z,100543.95
2019-01-11T05:56:52.285Z,100538.02
2019-01-11T05:59:57.742Z,100540.00
2019-01-11T06:03:02.981Z,100533.09
2019-01-11T06:06:08.498Z,100527.00
2019-01-11T06:09:13.718Z,100523.92
2019-01-11T06:12:19.067Z,100529.25
2019-01-11T06:15:24.310Z,100531.19
2019-01-11T06:18:29.727Z,100530.07
2019-01-11T06:21:34.967Z,100523.94
2019-01-11T06:24:40.188Z,100528.29
2019-01-11T06:27:45.329Z,100519.47
2019-01-11T06:30:50.652Z,100517.67
2019-01-11T06:33:56.026Z,100516.14
2019-01-11T06:37:01.289Z,100512.94
2019-01-11T06:40:08.242Z,100513.89
2019-01-11T06:43:13.475Z,100506.95
2019-01-11T06:46:20.381Z,100511.55
2019-01-11T06:49:25.610Z,100515.63
2019-01-11T06:52:30.857Z,100512.94
2019-01-11T06:55:36.022Z,100506.32
2019-01-11T06:58:41.196Z,100503.23
2019-01-11T07:01:46.393Z,100510.34
2019-01-11T07:04:51.604Z,100500.09
2019-01-11T07:07:56.854Z,100501.81
2019-01-11T07:11:02.121Z,100505.56
2019-01-11T07:14:07.468Z,100492.03
2019-01-11T07:17:12.643Z,100490.71
2019-01-11T07:20:17.846Z,100490.95
2019-01-11T07:23:25.242Z,100489.16
2019-01-11T07:26:30.422Z,100491.55
2019-01-11T07:29:35.641Z,100493.84
2019-01-11T07:32:41.394Z,100492.14
2019-01-11T07:36:06.298Z,100495.42
2019-01-11T07:39:31.165Z,100493.55
2019-01-11T07:42:36.327Z,100495.73
2019-01-11T07:45:41.536Z,100500.91
2019-01-11T07:48:46.788Z,100491.01
2019-01-11T07:51:51.976Z,100486.01
2019-01-11T07:54:57.151Z,100491.82
2019-01-11T07:58:02.326Z,100490.38
2019-01-11T08:01:07.765Z,100492.52
2019-01-11T08:04:13.043Z,100492.45
2019-01-11T08:07:18.250Z,100495.56
2019-01-11T08:10:23.496Z,100483.14
2019-01-11T08:13:28.912Z,100488.53
2019-01-11T08:16:34.168Z,100479.67
2019-01-11T08:19:39.321Z,100483.41
2019-01-11T08:22:44.593Z,100485.91
2019-01-11T08:25:49.750Z,100473.98
2019-01-11T08:28:54.938Z,100469.48
2019-01-11T08:32:00.058Z,100465.42
2019-01-11T08:35:07.873Z,100458.40
2019-01-11T08:38:13.046Z,100458.17
2019-01-11T08:41:18.352Z,100452.94
2019-01-11T08:44:23.533Z,100457.69
2019-01-11T08:47:28.712Z,100452.34
2019-01-11T08:50:34.109Z,100452.51
2019-01-11T08:53:39.288Z,100457.69
2019-01-11T08:56:44.391Z,100454.27
2019-01-11T08:59:49.793Z,100454.39
2019-01-11T09:02:54.983Z,100456.99
2019-01-11T09:06:00.274Z,100452.30
2019-01-11T09:09:08.978Z,100453.46
2019-01-11T09:12:14.215Z,100465.39
2019-01-11T09:15:19.346Z,100465.47
2019-01-11T09:18:34.760Z,100457.75
2019-01-11T09:21:41.678Z,100456.20
2019-01-11T09:24:46.874Z,100455.93
2019-01-11T09:27:52.126Z,100451.37
2019-01-11T09:30:57.405Z,100444.98
2019-01-11T09:34:02.607Z,100448.47
2019-01-11T09:37:07.833Z,100435.73
2019-01-11T09:40:13.195Z,100431.75
2019-01-11T09:43:18.466Z,100442.99
2019-01-11T09:46:23.633Z,100447.25
2019-01-11T09:49:28.797Z,100446.48
2019-01-11T09:52:33.968Z,100445.87
2019-01-11T09:55:39.202Z,100445.04
2019-01-11T09:58:44.429Z,100436.86
2019-01-11T10:01:59.569Z,100436.30
2019-01-11T10:05:06.488Z,100438.89
2019-01-11T10:08:11.712Z,100433.70
2019-01-11T10:11:16.882Z,100443.48
2019-01-11T10:14:22.106Z,100441.69
2019-01-11T10:17:27.366Z,100428.67
2019-01-11T10:20:32.731Z,100430.91
2019-01-11T10:23:37.949Z,100419.08
2019-01-11T10:26:43.102Z,100423.04
2019-01-11T10:29:48.280Z,100418.84
2019-01-11T10:32:53.489Z,100415.72
2019-01-11T10:35:59.785Z,100413.73
2019-01-11T10:39:07.617Z,100415.55
2019-01-11T10:42:14.655Z,100416.89
2019-01-11T10:45:24.197Z,100420.48
2019-01-11T10:48:29.450Z,100416.56
2019-01-11T10:51:34.748Z,100420.28
2019-01-11T10:54:43.735Z,100415.32
2019-01-11T10:57:49.646Z,100429.84
2019-01-11T11:00:54.866Z,100417.26
2019-01-11T11:04:00.046Z,100415.17
2019-01-11T11:07:05.585Z,100422.50
2019-01-11T11:10:12.134Z,100409.98
2019-01-11T11:13:17.326Z,100401.83
2019-01-11T11:16:22.613Z,100392.75
2019-01-11T11:19:27.791Z,100392.97
2019-01-11T11:22:32.975Z,100397.50
2019-01-11T11:25:38.184Z,100382.13
2019-01-11T11:28:43.366Z,100386.98
2019-01-11T11:31:48.603Z,100377.03
2019-01-11T11:34:53.726Z,100380.77
2019-01-11T11:37:59.356Z,100367.34
2019-01-11T11:41:05.656Z,100365.98
2019-01-11T11:44:10.896Z,100364.81
2019-01-11T11:47:16.270Z,100352.72
2019-01-11T11:50:21.538Z,100349.08
2019-01-11T11:53:26.747Z,100342.31
2019-01-11T11:56:31.907Z,100332.16
2019-01-11T11:59:37.176Z,100329.63
2019-01-11T12:02:42.398Z,100328.57
2019-01-11T12:05:47.602Z,100327.72
2019-01-11T12:08:52.873Z,100323.62
2019-01-11T12:11:58.003Z,100324.87
2019-01-11T12:15:03.222Z,100324.02
2019-01-11T12:18:09.553Z,100329.83
2019-01-11T12:21:14.822Z,100323.63
2019-01-11T12:24:20.140Z,100324.55
2019-01-11T12:27:25.392Z,100308.45
2019-01-11T12:30:30.813Z,100311.31
2019-01-11T12:33:36.123Z,100310.41
2019-01-11T12:36:41.310Z,100302.93
2019-01-11T12:39:46.539Z,100299.66
2019-01-11T12:42:51.841Z,100300.30
2019-01-11T12:45:57.013Z,100297.45
2019-01-11T12:49:02.299Z,100283.58
2019-01-11T12:52:08.770Z,100293.46
2019-01-11T12:55:13.969Z,100296.94
2019-01-11T12:58:19.233Z,100297.70
2019-01-11T13:01:24.512Z,100292.80
2019-01-11T13:04:29.773Z,100283.09
2019-01-11T13:07:34.959Z,100281.02
2019-01-11T13:10:40.191Z,100269.77
2019-01-11T13:13:45.487Z,100264.46
2019-01-11T13:16:50.807Z,100252.84
2019-01-11T13:19:55.991Z,100254.67
2019-01-11T13:23:01.210Z,100257.59
2019-01-11T13:26:06.456Z,100256.09
2019-01-11T13:29:11.740Z,100256.83
2019-01-11T13:32:16.937Z,100253.91
2019-01-11T13:35:22.165Z,100251.50
2019-01-11T13:38:27.541Z,100246.96
2019-01-11T13:41:32.791Z,100243.34
2019-01-11T13:44:38.234Z,100248.55
2019-01-11T13:47:43.502Z,100250.05
2019-01-11T13:50:48.706Z,100248.45
2019-01-11T13:53:53.871Z,100247.69
2019-01-11T13:56:59.149Z,100261.84
2019-01-11T14:00:05.714Z,100263.47
2019-01-11T14:03:12.665Z,100269.38
2019-01-11T14:06:18.953Z,100266.09
2019-01-11T14:09:24.599Z,100267.06
2019-01-11T14:12:29.777Z,100262.34
2019-01-11T14:15:34.980Z,100263.14
2019-01-11T14:18:40.274Z,100258.72
2019-01-11T14:21:45.441Z,100253.44
2019-01-11T14:24:50.680Z,100247.49
2019-01-11T14:27:55.949Z,100251.18
2019-01-11T14:31:01.277Z,100253.84
2019-01-11T14:34:06.616Z,100254.33
2019-01-11T14:37:11.788Z,100251.08
2019-01-11T14:40:17.074Z,100239.54
2019-01-11T14:43:22.314Z,100239.35
2019-01-11T14:46:27.518Z,100239.98
2019-01-11T14:49:32.784Z,100245.41
2019-01-11T14:52:38.002Z,100246.06
2019-01-11T14:55:43.211Z,100238.28
2019-01-11T14:58:48.422Z,100244.63
2019-01-11T15:01:53.696Z,100222.14
2019-01-11T15:04:58.860Z,100232.36
2019-01-11T15:08:04.240Z,100238.19
2019-01-11T15:11:09.525Z,100227.19
2019-01-11T15:14:20.746Z,100226.41
2019-01-11T15:17:26.003Z,100234.20
2019-01-11T15:20:31.209Z,100230.30
2019-01-11T15:23:37.432Z,100224.27
2019-01-11T15:26:42.695Z,100228.45
2019-01-11T15:29:48.017Z,100219.56
2019-01-11T15:32:53.473Z,100225.13
2019-01-11T15:35:58.630Z,100212.96
2019-01-11T15:39:05.302Z,100206.68
2019-01-11T15:42:10.486Z,100199.03
2019-01-11T15:45:15.818Z,100206.98
2019-01-11T15:48:38.647Z,100207.07
2019-01-11T15:51:43.874Z,100208.73
2019-01-11T15:54:49.020Z,100209.95
2019-01-11T15:57:54.295Z,100200.13
2019-01-11T16:00:59.458Z,100200.03
2019-01-11T16:04:09.137Z,100200.70
2019-01-11T16:07:14.418Z,100203.61
2019-01-11T16:10:22.339Z,100214.38
2019-01-11T16:13:37.451Z,100213.66
2019-01-11T16:17:09.063Z,100211.52
2019-01-11T16:20:14.281Z,100208.88
2019-01-11T16:23:19.591Z,100202.52
2019-01-11T16:26:24.900Z,100198.64
2019-01-11T16:29:30.664Z,100195.47
2019-01-11T16:32:35.819Z,100201.91
2019-01-11T16:35:41.118Z,100206.59
2019-01-11T16:38:46.304Z,100200.48
2019-01-11T16:41:51.609Z,100202.54
2019-01-11T16:44:56.928Z,100202.33
2019-01-11T16:48:02.157Z,100206.43
2019-01-11T16:51:07.316Z,100207.63
2019-01-11T16:54:12.608Z,100204.43
2019-01-11T16:57:17.812Z,100210.21
2019-01-11T17:00:23.058Z,100210.80
2019-01-11T17:03:28.323Z,100200.42
2019-01-11T17:06:33.522Z,100201.27
2019-01-11T17:09:38.806Z,100198.20
2019-01-11T17:12:45.629Z,100198.62
2019-01-11T17:15:50.853Z,100202.59
2019-01-11T17:18:56.093Z,100203.53
2019-01-11T17:22:01.305Z,100202.56
2019-01-11T17:25:06.870Z,100209.09
2019-01-11T17:28:12.019Z,100203.28
2019-01-11T17:31:17.265Z,100205.03
2019-01-11T17:34:22.608Z,100210.55
2019-01-11T17:37:27.891Z,100212.20
2019-01-11T17:40:33.110Z,100203.44
2019-01-11T17:43:38.309Z,100211.83
2019-01-11T17:46:43.562Z,100215.41
2019-01-11T17:49:48.727Z,100211.70
2019-01-11T17:52:59.686Z,100213.92
2019-01-11T17:56:00.874Z,100206.09
2019-01-11T17:59:08.534Z,100203.66
2019-01-11T18:02:13.757Z,100197.28
2019-01-11T18:05:22.283Z,100192.53
2019-01-11T18:08:27.500Z,100193.10
2019-01-11T18:11:32.728Z,100187.48
2019-01-11T18:14:37.921Z,100183.00
2019-01-11T18:17:43.454Z,100190.65
2019-01-11T18:20:48.656Z,100185.16
2019-01-11T18:23:53.892Z,100186.55
2019-01-11T18:26:59.061Z,100179.52
2019-01-11T18:30:06.055Z,100175.56
2019-01-11T18:33:13.095Z,100188.86
2019-01-11T18:36:18.314Z,100181.33
2019-01-11T18:39:24.532Z,100170.69
2019-01-11T18:42:29.950Z,100168.53
2019-01-11T18:45:35.162Z,100170.09
2019-01-11T18:48:40.465Z,100179.53
2019-01-11T18:51:45.601Z,100189.17
2019-01-11T18:54:51.957Z,100191.39
2019-01-11T18:57:57.503Z,100193.52
2019-01-11T19:01:02.773Z,100189.76
2019-01-11T19:04:07.943Z,100190.64
2019-01-11T19:07:13.147Z,100200.79
2019-01-11T19:10:19.476Z,100201.95
2019-01-11T19:13:24.594Z,100204.05
2019-01-11T19:16:29.779Z,100189.52
2019-01-11T19:19:35.003Z,100183.67
2019-01-11T19:22:40.196Z,100195.74
2019-01-11T19:25:45.371Z,100200.13
2019-01-11T19:28:50.705Z,100202.78
2019-01-11T19:31:56.117Z,100207.73
2019-01-11T19:35:01.435Z,100213.52
2019-01-11T19:38:06.613Z,100211.33
2019-01-11T19:41:11.753Z,100208.67
2019-01-11T19:44:17.032Z,100209.84
2019-01-11T19:47:22.319Z,100210.67
2019-01-11T19:50:27.544Z,100212.70
2019-01-11T19:53:32.881Z,100207.34
2019-01-11T19:56:38.423Z,100211.00
2019-01-11T19:59:43.589Z,100211.20
2019-01-11T20:02:50.658Z,100217.91
2019-01-11T20:05:56.080Z,100222.20
2019-01-11T20:09:01.471Z,100221.83
2019-01-11T20:12:11.297Z,100213.92
2019-01-11T20:15:16.711Z,100218.73
2019-01-11T20:18:21.903Z,100214.19
2019-01-11T20:21:27.179Z,100224.09
2019-01-11T20:24:34.391Z,100220.64
2019-01-11T20:27:39.713Z,100224.92
2019-01-11T20:30:44.997Z,100223.47
2019-01-11T20:33:50.251Z,100210.70
2019-01-11T20:37:08.129Z,100219.37
2019-01-11T20:40:14.806Z,100225.81
2019-01-11T20:43:20.343Z,100232.27
2019-01-11T20:46:25.533Z,100222.66
2019-01-11T20:49:30.781Z,100216.41
2019-01-11T20:52:35.917Z,100222.51
2019-01-11T20:55:41.174Z,100220.16
2019-01-11T20:58:46.311Z,100220.73
2019-01-11T21:01:51.579Z,100212.42
2019-01-11T21:04:56.753Z,100216.58
2019-01-11T21:08:02.018Z,100212.84
2019-01-11T21:11:07.349Z,100215.08
2019-01-11T21:14:12.617Z,100218.46
2019-01-11T21:17:19.002Z,100226.28
2019-01-11T21:20:24.423Z,100226.11
2019-01-11T21:23:29.733Z,100231.23
2019-01-11T21:26:35.041Z,100230.57
2019-01-11T21:29:42.636Z,100233.92
2019-01-11T21:32:47.993Z,100237.53
2019-01-11T21:35:53.336Z,100229.48
2019-01-11T21:38:58.627Z,100232.59
2019-01-11T21:42:03.953Z,100224.80
2019-01-11T21:45:10.394Z,100227.30
2019-01-11T21:48:15.635Z,100228.62
2019-01-11T21:51:20.790Z,100217.83
2019-01-11T21:54:26.036Z,100226.24
2019-01-11T21:57:31.432Z,100223.97
2019-01-11T22:00:42.208Z,100223.56
2019-01-11T22:03:47.402Z,100226.39
2019-01-11T22:06:52.596Z,100224.34
2019-01-11T22:09:57.993Z,100225.25
2019-01-11T22:13:03.115Z,100230.05
2019-01-11T22:16:08.381Z,100231.62
2019-01-11T22:19:13.613Z,100220.95
2019-01-11T22:22:18.919Z,100223.09
2019-01-11T22:25:24.093Z,100226.19
2019-01-11T22:28:29.290Z,100225.64
2019-01-11T22:31:34.509Z,100219.57
2019-01-11T22:34:39.793Z,100225.89
2019-01-11T22:37:45.104Z,100219.94
2019-01-11T22:40:50.351Z,100215.58
2019-01-11T22:43:56.892Z,100220.27
2019-01-11T22:47:02.028Z,100219.23
2019-01-11T22:50:08.297Z,100227.61
2019-01-11T22:53:13.481Z,100223.40
2019-01-11T22:56:19.087Z,100223.62
2019-01-11T22:59:24.326Z,100221.20
2019-01-11T23:02:48.004Z,100221.38
2019-01-11T23:05:56.545Z,100214.41
2019-01-11T23:09:01.731Z,100224.78
2019-01-11T23:12:41.767Z,100214.38
2019-01-11T23:15:57.664Z,100218.67
2019-01-11T23:19:02.909Z,100224.11
2019-01-11T23:22:08.135Z,100226.13
2019-01-11T23:25:13.256Z,100227.54
2019-01-11T23:28:18.673Z,100222.67
2019-01-11T23:31:23.973Z,100225.66
2019-01-11T23:34:32.167Z,100224.52
2019-01-11T23:37:37.303Z,100234.91
2019-01-11T23:40:42.527Z,100228.88
2019-01-11T23:43:47.814Z,100237.56
2019-01-11T23:46:53.033Z,100229.56
2019-01-11T23:49:58.337Z,100244.03
2019-01-11T23:53:03.519Z,100237.30
2019-01-11T23:56:08.741Z,100240.70
2019-01-11T23:59:13.931Z,100239.89
